createdAt,value
2022-10-20T00:02:25.770Z,46.04
2022-10-20T00:04:56.497Z,46.12
2022-10-20T00:07:29.588Z,46.16
2022-10-20T00:10:00.211Z,46.11
2022-10-20T00:12:30.811Z,46.20
2022-10-20T00:15:01.578Z,46.14
2022-10-20T00:17:32.335Z,46.06
2022-10-20T00:20:03.093Z,46.24
2022-10-20T00:22:34.311Z,46.11
2022-10-20T00:25:05.741Z,46.12
2022-10-20T00:27:36.395Z,46.32
2022-10-20T00:30:08.764Z,46.24
2022-10-20T00:32:39.351Z,46.16
2022-10-20T00:35:11.545Z,46.23
2022-10-20T00:37:42.193Z,46.11
2022-10-20T00:40:14.189Z,46.10
2022-10-20T00:42:48.506Z,46.15
2022-10-20T00:45:21.641Z,46.14
2022-10-20T00:47:56.882Z,46.13
2022-10-20T00:50:33.073Z,46.00
2022-10-20T00:53:05.769Z,46.06
2022-10-20T00:55:41.955Z,46.04
2022-10-20T00:58:12.743Z,46.03
2022-10-20T01:00:45.790Z,46.09
2022-10-20T01:03:21.919Z,46.09
2022-10-20T01:05:52.727Z,46.07
2022-10-20T01:08:23.320Z,46.00
2022-10-20T01:11:04.590Z,45.98
2022-10-20T01:13:48.168Z,46.07
2022-10-20T01:16:30.976Z,46.12
2022-10-20T01:19:11.505Z,46.09
2022-10-20T01:22:16.626Z,46.12
2022-10-20T01:25:02.204Z,46.02
2022-10-20T01:27:37.838Z,46.11
2022-10-20T01:30:18.592Z,46.13
2022-10-20T01:33:09.899Z,46.10
2022-10-20T01:35:56.483Z,46.30
2022-10-20T01:38:36.962Z,46.06
2022-10-20T01:41:14.033Z,46.30
2022-10-20T01:43:47.776Z,46.13
2022-10-20T01:46:22.673Z,46.08
2022-10-20T01:48:55.084Z,46.16
2022-10-20T01:51:25.923Z,46.17
2022-10-20T01:53:56.748Z,46.09
2022-10-20T01:56:35.737Z,46.15
2022-10-20T01:59:23.897Z,45.82
2022-10-20T02:02:13.085Z,46.01
2022-10-20T02:04:55.141Z,46.12
2022-10-20T02:07:29.282Z,46.05
2022-10-20T02:10:05.969Z,46.17
2022-10-20T02:12:40.457Z,46.04
2022-10-20T02:15:16.150Z,46.22
2022-10-20T02:17:50.453Z,45.90
2022-10-20T02:20:22.562Z,46.19
2022-10-20T02:22:53.859Z,46.14
2022-10-20T02:25:25.954Z,46.04
2022-10-20T02:30:35.393Z,46.05
2022-10-20T02:33:07.376Z,46.06
2022-10-20T02:35:37.984Z,46.27
2022-10-20T02:38:09.058Z,46.01
2022-10-20T02:40:40.004Z,46.11
2022-10-20T02:43:10.636Z,45.90
2022-10-20T02:45:41.374Z,46.05
2022-10-20T02:48:12.020Z,46.13
2022-10-20T02:50:42.851Z,46.05
2022-10-20T02:53:13.713Z,46.07
2022-10-20T02:55:44.610Z,45.90
2022-10-20T02:58:15.578Z,45.52
2022-10-20T03:00:46.184Z,45.69
2022-10-20T03:03:16.780Z,45.78
2022-10-20T03:05:47.789Z,45.88
2022-10-20T03:08:18.695Z,45.85
2022-10-20T03:10:49.782Z,45.84
2022-10-20T03:13:23.598Z,46.05
2022-10-20T03:15:54.257Z,46.12
2022-10-20T03:18:24.914Z,46.15
2022-10-20T03:20:55.767Z,46.21
2022-10-20T03:23:26.621Z,46.15
2022-10-20T03:26:04.510Z,46.20
2022-10-20T03:28:36.491Z,46.20
2022-10-20T03:31:07.429Z,46.14
2022-10-20T03:33:38.085Z,45.91
2022-10-20T03:36:10.606Z,45.87
2022-10-20T03:38:43.608Z,45.74
2022-10-20T03:41:14.482Z,46.00
2022-10-20T03:43:45.605Z,45.89
2022-10-20T03:46:16.470Z,46.05
2022-10-20T03:48:47.322Z,46.12
2022-10-20T03:51:18.061Z,46.27
2022-10-20T03:53:48.763Z,46.30
2022-10-20T03:56:21.352Z,46.36
2022-10-20T03:58:52.326Z,46.48
2022-10-20T04:01:32.827Z,46.55
2022-10-20T04:04:03.561Z,46.62
2022-10-20T04:06:34.371Z,46.41
2022-10-20T04:09:06.060Z,46.05
2022-10-20T04:11:36.856Z,46.11
2022-10-20T04:14:07.912Z,45.98
2022-10-20T04:16:38.572Z,45.86
2022-10-20T04:19:09.173Z,46.01
2022-10-20T04:21:39.883Z,46.04
2022-10-20T04:24:10.546Z,46.07
2022-10-20T04:26:41.405Z,46.19
2022-10-20T04:29:12.230Z,46.21
2022-10-20T04:31:46.690Z,46.28
2022-10-20T04:34:19.759Z,46.28
2022-10-20T04:36:50.592Z,46.28
2022-10-20T04:39:21.333Z,46.32
2022-10-20T04:41:52.059Z,46.37
2022-10-20T04:44:22.694Z,46.43
2022-10-20T04:46:54.966Z,46.57
2022-10-20T04:49:25.909Z,46.46
2022-10-20T04:52:00.799Z,46.57
2022-10-20T04:54:31.891Z,46.55
2022-10-20T04:57:04.265Z,46.68
2022-10-20T04:59:34.879Z,46.60
2022-10-20T05:02:05.710Z,46.68
2022-10-20T05:04:36.431Z,46.55
2022-10-20T05:07:07.172Z,46.56
2022-10-20T05:09:38.113Z,46.59
2022-10-20T05:12:09.277Z,46.66
2022-10-20T05:14:39.959Z,46.55
2022-10-20T05:17:10.559Z,46.60
2022-10-20T05:19:41.428Z,46.69
2022-10-20T05:22:12.273Z,46.66
2022-10-20T05:24:43.098Z,46.69
2022-10-20T05:27:13.834Z,46.70
2022-10-20T05:29:44.452Z,46.72
2022-10-20T05:32:15.413Z,46.72
2022-10-20T05:34:46.026Z,46.86
2022-10-20T05:37:16.890Z,46.71
2022-10-20T05:42:19.390Z,46.76
2022-10-20T05:44:50.008Z,46.86
2022-10-20T05:47:20.923Z,46.78
2022-10-20T05:49:52.250Z,46.62
2022-10-20T05:52:23.271Z,46.74
2022-10-20T05:54:53.895Z,46.63
2022-10-20T05:57:24.560Z,46.63
2022-10-20T05:59:55.266Z,46.63
2022-10-20T06:02:26.009Z,46.69
2022-10-20T06:04:56.669Z,46.74
2022-10-20T06:07:27.381Z,46.63
2022-10-20T06:09:58.324Z,46.57
2022-10-20T06:12:29.271Z,46.52
2022-10-20T06:14:59.909Z,46.63
2022-10-20T06:17:30.846Z,46.78
2022-10-20T06:20:01.482Z,46.69
2022-10-20T06:22:32.423Z,46.50
2022-10-20T06:25:03.120Z,46.62
2022-10-20T06:27:33.799Z,46.59
2022-10-20T06:30:04.732Z,46.62
2022-10-20T06:32:35.630Z,46.55
2022-10-20T06:35:07.626Z,46.48
2022-10-20T06:37:38.691Z,46.58
2022-10-20T06:40:11.057Z,46.44
2022-10-20T06:42:41.687Z,46.30
2022-10-20T06:45:15.573Z,46.47
2022-10-20T06:47:47.796Z,46.52
2022-10-20T06:50:18.902Z,46.57
2022-10-20T06:52:49.646Z,46.31
2022-10-20T06:55:20.318Z,46.34
2022-10-20T06:57:51.046Z,46.48
2022-10-20T07:00:21.811Z,46.28
2022-10-20T07:02:52.545Z,46.36
2022-10-20T07:05:23.229Z,46.32
2022-10-20T07:07:56.588Z,46.13
2022-10-20T07:10:27.292Z,46.05
2022-10-20T07:12:58.030Z,46.28
2022-10-20T07:15:28.666Z,46.18
2022-10-20T07:17:59.422Z,45.98
2022-10-20T07:20:30.042Z,45.98
2022-10-20T07:23:00.782Z,45.96
2022-10-20T07:25:32.721Z,46.13
2022-10-20T07:28:03.480Z,45.98
2022-10-20T07:30:38.587Z,45.97
2022-10-20T07:33:09.853Z,45.84
2022-10-20T07:35:40.912Z,45.83
2022-10-20T07:38:11.578Z,45.76
2022-10-20T07:40:42.393Z,45.83
2022-10-20T07:43:13.229Z,45.70
2022-10-20T07:45:43.863Z,45.74
2022-10-20T07:48:14.600Z,45.57
2022-10-20T07:50:45.234Z,45.39
2022-10-20T07:53:15.978Z,45.49
2022-10-20T07:55:47.227Z,45.44
2022-10-20T07:58:17.965Z,45.51
2022-10-20T08:00:48.723Z,45.30
2022-10-20T08:03:19.509Z,45.40
2022-10-20T08:05:50.228Z,45.57
2022-10-20T08:08:20.915Z,45.38
2022-10-20T08:10:51.731Z,45.35
2022-10-20T08:13:22.917Z,45.33
2022-10-20T08:15:55.693Z,45.30
2022-10-20T08:18:32.636Z,45.31
2022-10-20T08:21:16.644Z,45.06
2022-10-20T08:23:49.174Z,45.16
2022-10-20T08:26:22.494Z,45.20
2022-10-20T08:28:55.153Z,45.20
2022-10-20T08:31:25.903Z,45.22
2022-10-20T08:33:56.974Z,45.11
2022-10-20T08:36:28.321Z,44.97
2022-10-20T08:39:03.417Z,44.87
2022-10-20T08:42:07.637Z,44.92
2022-10-20T08:44:34.508Z,44.97
2022-10-20T08:47:14.287Z,44.88
2022-10-20T08:49:48.052Z,44.80
2022-10-20T08:52:23.897Z,44.71
2022-10-20T08:54:56.816Z,44.74
2022-10-20T08:57:33.357Z,44.72
2022-10-20T09:00:17.428Z,44.63
2022-10-20T09:02:49.038Z,44.61
2022-10-20T09:05:24.571Z,44.55
2022-10-20T09:07:55.952Z,44.50
2022-10-20T09:10:33.363Z,44.61
2022-10-20T09:13:09.905Z,44.33
2022-10-20T09:15:41.572Z,44.34
2022-10-20T09:18:15.332Z,44.35
2022-10-20T09:20:52.496Z,44.30
2022-10-20T09:23:40.752Z,44.23
2022-10-20T09:26:30.464Z,44.12
2022-10-20T09:29:14.843Z,44.07
2022-10-20T09:31:48.218Z,43.99
2022-10-20T09:34:27.822Z,44.04
2022-10-20T09:37:04.429Z,43.76
2022-10-20T09:39:43.153Z,43.75
2022-10-20T09:42:20.476Z,43.66
2022-10-20T09:44:54.497Z,43.59
2022-10-20T09:47:27.959Z,43.64
2022-10-20T09:50:02.298Z,43.53
2022-10-20T09:52:40.789Z,43.51
2022-10-20T09:55:26.613Z,43.37
2022-10-20T09:57:56.796Z,43.39
2022-10-20T10:00:37.164Z,43.58
2022-10-20T10:03:22.066Z,43.49
2022-10-20T10:05:54.821Z,43.36
2022-10-20T10:08:28.260Z,43.49
2022-10-20T10:11:06.464Z,43.36
2022-10-20T10:13:44.004Z,43.39
2022-10-20T10:16:16.296Z,43.37
2022-10-20T10:18:57.242Z,43.31
2022-10-20T10:21:28.996Z,43.18
2022-10-20T10:24:02.294Z,43.29
2022-10-20T10:26:53.095Z,43.29
2022-10-20T10:29:29.385Z,43.17
2022-10-20T10:32:05.098Z,43.15
2022-10-20T10:35:09.097Z,43.14
2022-10-20T10:37:40.097Z,43.15
2022-10-20T10:40:18.840Z,43.09
2022-10-20T10:43:15.933Z,43.07
2022-10-20T10:45:53.098Z,42.99
2022-10-20T10:48:48.309Z,42.95
2022-10-20T10:51:29.130Z,42.82
2022-10-20T10:54:19.757Z,42.90
2022-10-20T10:56:52.843Z,42.76
2022-10-20T10:59:27.639Z,42.87
2022-10-20T11:02:25.846Z,42.85
2022-10-20T11:05:17.307Z,43.03
2022-10-20T11:07:56.722Z,42.81
2022-10-20T11:10:34.928Z,42.78
2022-10-20T11:13:24.446Z,42.75
2022-10-20T11:16:24.669Z,42.85
2022-10-20T11:19:44.309Z,42.95
2022-10-20T11:22:24.790Z,42.94
2022-10-20T11:25:03.892Z,42.83
2022-10-20T11:27:37.980Z,42.90
2022-10-20T11:30:18.562Z,42.88
2022-10-20T11:32:54.967Z,43.03
2022-10-20T11:35:35.062Z,42.99
2022-10-20T11:38:18.205Z,42.99
2022-10-20T11:40:53.752Z,42.84
2022-10-20T11:43:31.779Z,42.77
2022-10-20T11:46:06.885Z,42.88
2022-10-20T11:48:43.279Z,42.70
2022-10-20T11:51:42.511Z,42.68
2022-10-20T11:54:33.269Z,42.75
2022-10-20T11:57:21.328Z,42.82
2022-10-20T12:00:12.230Z,42.67
2022-10-20T12:03:14.692Z,42.57
2022-10-20T12:06:07.591Z,42.79
2022-10-20T12:08:53.538Z,42.62
2022-10-20T12:11:31.253Z,42.40
2022-10-20T12:14:13.901Z,42.31
2022-10-20T12:17:29.762Z,42.29
2022-10-20T12:20:39.387Z,42.33
2022-10-20T12:23:49.324Z,42.29
2022-10-20T12:27:07.246Z,42.28
2022-10-20T12:29:56.084Z,42.29
2022-10-20T12:32:57.800Z,42.25
2022-10-20T12:36:01.836Z,42.12
2022-10-20T12:38:32.180Z,42.21
2022-10-20T12:41:05.043Z,42.13
2022-10-20T12:43:49.792Z,42.30
2022-10-20T12:46:23.965Z,42.20
2022-10-20T12:49:00.344Z,42.24
2022-10-20T12:51:41.046Z,42.10
2022-10-20T12:54:26.082Z,42.23
2022-10-20T12:56:59.744Z,42.11
2022-10-20T12:59:47.609Z,42.21
2022-10-20T13:02:35.065Z,42.10
2022-10-20T13:05:42.957Z,42.01
2022-10-20T13:08:34.097Z,42.15
2022-10-20T13:11:40.830Z,42.04
2022-10-20T13:14:42.934Z,41.97
2022-10-20T13:17:34.674Z,41.98
2022-10-20T13:20:19.733Z,42.08
2022-10-20T13:22:54.229Z,42.08
2022-10-20T13:25:37.757Z,42.05
2022-10-20T13:28:19.861Z,41.89
2022-10-20T13:31:12.488Z,41.95
2022-10-20T13:34:05.060Z,42.07
2022-10-20T13:36:56.091Z,41.98
2022-10-20T13:39:36.079Z,42.00
2022-10-20T13:42:19.791Z,41.92
2022-10-20T13:45:03.409Z,41.90
2022-10-20T13:47:59.354Z,41.94
2022-10-20T13:50:34.661Z,42.00
2022-10-20T13:53:20.821Z,42.07
2022-10-20T13:56:01.577Z,42.04
2022-10-20T13:58:32.441Z,42.01
2022-10-20T14:01:06.210Z,41.98
2022-10-20T14:03:44.857Z,41.91
2022-10-20T14:06:37.610Z,41.97
2022-10-20T14:09:21.121Z,41.19
2022-10-20T14:11:55.398Z,40.61
2022-10-20T14:14:28.959Z,39.87
2022-10-20T14:16:59.794Z,39.96
2022-10-20T14:19:33.682Z,40.41
2022-10-20T14:22:17.028Z,40.07
2022-10-20T14:24:49.644Z,40.03
2022-10-20T14:27:24.439Z,40.06
2022-10-20T14:29:57.334Z,40.06
2022-10-20T14:32:31.442Z,39.87
2022-10-20T14:35:16.597Z,39.91
2022-10-20T14:37:53.731Z,39.84
2022-10-20T14:40:27.867Z,39.85
2022-10-20T14:43:03.693Z,39.80
2022-10-20T14:45:34.913Z,39.81
2022-10-20T14:48:08.403Z,39.37
2022-10-20T14:50:41.186Z,39.19
2022-10-20T14:53:31.632Z,39.41
2022-10-20T14:56:03.621Z,39.34
2022-10-20T14:58:37.986Z,39.22
2022-10-20T15:01:23.403Z,39.39
2022-10-20T15:04:17.775Z,39.25
2022-10-20T15:06:49.179Z,39.23
2022-10-20T15:09:34.361Z,39.04
2022-10-20T15:12:15.185Z,38.99
2022-10-20T15:14:48.907Z,38.74
2022-10-20T15:17:34.428Z,38.69
2022-10-20T15:20:33.483Z,38.74
2022-10-20T15:23:06.101Z,38.57
2022-10-20T15:25:48.252Z,38.61
2022-10-20T15:28:38.942Z,38.62
2022-10-20T15:31:17.461Z,38.62
2022-10-20T15:33:49.225Z,38.59
2022-10-20T15:36:22.027Z,38.57
2022-10-20T15:38:53.264Z,38.47
2022-10-20T15:41:26.542Z,38.62
2022-10-20T15:43:57.393Z,38.62
2022-10-20T15:46:28.187Z,38.59
2022-10-20T15:48:59.075Z,38.71
2022-10-20T15:51:32.235Z,38.71
2022-10-20T15:54:03.173Z,38.78
2022-10-20T15:56:35.432Z,38.71
2022-10-20T16:01:41.781Z,38.97
2022-10-20T16:04:20.132Z,39.08
2022-10-20T16:06:53.051Z,39.25
2022-10-20T16:09:24.293Z,39.30
2022-10-20T16:11:55.380Z,39.41
2022-10-20T16:14:26.202Z,39.42
2022-10-20T16:16:59.156Z,39.58
2022-10-20T16:19:29.987Z,39.46
2022-10-20T16:22:00.877Z,39.76
2022-10-20T16:24:31.724Z,39.81
2022-10-20T16:29:39.539Z,39.93
2022-10-20T16:32:10.495Z,40.13
2022-10-20T16:34:41.424Z,40.14
2022-10-20T16:37:12.266Z,40.10
2022-10-20T16:39:43.000Z,40.24
2022-10-20T16:42:13.748Z,40.37
2022-10-20T16:44:44.592Z,40.37
2022-10-20T16:47:15.321Z,40.52
2022-10-20T16:49:45.962Z,40.50
2022-10-20T16:52:16.801Z,40.61
2022-10-20T16:54:47.531Z,40.70
2022-10-20T16:57:18.584Z,40.62
2022-10-20T16:59:50.209Z,40.79
2022-10-20T17:02:23.280Z,40.78
2022-10-20T17:04:54.381Z,40.84
2022-10-20T17:07:25.425Z,41.04
2022-10-20T17:09:56.267Z,41.03
2022-10-20T17:12:27.133Z,41.06
2022-10-20T17:14:57.945Z,41.17
2022-10-20T17:17:28.732Z,41.25
2022-10-20T17:19:59.477Z,41.38
2022-10-20T17:22:30.352Z,41.34
2022-10-20T17:25:01.057Z,41.21
2022-10-20T17:27:31.833Z,41.40
2022-10-20T17:30:02.898Z,41.34
2022-10-20T17:32:33.737Z,41.38
2022-10-20T17:35:05.651Z,41.42
2022-10-20T17:37:36.531Z,41.51
2022-10-20T17:40:08.515Z,41.28
2022-10-20T17:42:39.794Z,41.21
2022-10-20T17:45:12.143Z,41.44
2022-10-20T17:47:42.851Z,41.36
2022-10-20T17:50:13.861Z,41.43
2022-10-20T17:52:45.150Z,41.58
2022-10-20T17:55:16.093Z,41.44
2022-10-20T17:57:46.946Z,41.49
2022-10-20T18:00:23.102Z,41.64
2022-10-20T18:03:04.363Z,41.65
2022-10-20T18:05:38.395Z,41.72
2022-10-20T18:08:09.449Z,41.71
2022-10-20T18:10:44.232Z,41.71
2022-10-20T18:13:15.292Z,41.87
2022-10-20T18:15:46.340Z,41.90
2022-10-20T18:18:17.219Z,41.94
2022-10-20T18:20:56.591Z,41.97
2022-10-20T18:23:31.567Z,41.90
2022-10-20T18:26:08.237Z,42.01
2022-10-20T18:28:41.981Z,41.92
2022-10-20T18:31:18.411Z,42.09
2022-10-20T18:33:50.682Z,41.99
2022-10-20T18:36:21.895Z,41.50
2022-10-20T18:38:53.523Z,41.27
2022-10-20T18:41:27.880Z,41.31
2022-10-20T18:44:00.599Z,41.20
2022-10-20T18:46:34.639Z,41.11
2022-10-20T18:49:07.390Z,41.36
2022-10-20T18:51:38.671Z,41.50
2022-10-20T18:54:11.041Z,41.79
2022-10-20T18:56:42.889Z,41.71
2022-10-20T18:59:16.597Z,41.82
2022-10-20T19:01:48.555Z,41.87
2022-10-20T19:04:19.498Z,41.73
2022-10-20T19:06:50.967Z,41.73
2022-10-20T19:09:22.872Z,41.69
2022-10-20T19:11:55.195Z,41.77
2022-10-20T19:14:26.152Z,41.85
2022-10-20T19:16:57.179Z,41.71
2022-10-20T19:19:28.098Z,41.77
2022-10-20T19:21:59.578Z,41.87
2022-10-20T19:24:30.267Z,41.98
2022-10-20T19:27:25.222Z,41.84
2022-10-20T19:29:53.182Z,42.06
2022-10-20T19:32:24.224Z,42.05
2022-10-20T19:34:55.154Z,42.11
2022-10-20T19:37:25.810Z,42.11
2022-10-20T19:39:56.541Z,42.15
2022-10-20T19:42:27.378Z,42.21
2022-10-20T19:44:58.159Z,42.22
2022-10-20T19:47:29.072Z,42.28
2022-10-20T19:49:59.930Z,42.17
2022-10-20T19:52:30.775Z,42.23
2022-10-20T19:55:02.091Z,42.31
2022-10-20T19:57:33.019Z,42.29
2022-10-20T20:00:03.875Z,42.43
2022-10-20T20:02:35.320Z,42.42
2022-10-20T20:05:07.386Z,42.65
2022-10-20T20:07:38.436Z,42.64
2022-10-20T20:10:10.860Z,42.62
2022-10-20T20:12:41.657Z,42.56
2022-10-20T20:15:12.379Z,42.57
2022-10-20T20:17:43.912Z,42.62
2022-10-20T20:20:14.799Z,42.51
2022-10-20T20:22:45.429Z,42.83
2022-10-20T20:25:16.265Z,42.86
2022-10-20T20:27:47.008Z,42.81
2022-10-20T20:30:18.078Z,42.77
2022-10-20T20:32:52.079Z,42.98
2022-10-20T20:35:25.053Z,43.06
2022-10-20T20:37:56.077Z,42.91
2022-10-20T20:40:26.903Z,43.02
2022-10-20T20:42:57.971Z,42.97
2022-10-20T20:45:29.857Z,43.06
2022-10-20T20:48:00.503Z,43.10
2022-10-20T20:50:31.226Z,43.15
2022-10-20T20:53:01.972Z,43.21
2022-10-20T20:55:32.674Z,43.19
2022-10-20T20:58:03.380Z,43.11
2022-10-20T21:00:34.175Z,43.13
2022-10-20T21:03:05.012Z,43.28
2022-10-20T21:05:37.495Z,43.38
2022-10-20T21:08:08.331Z,43.32
2022-10-20T21:10:39.605Z,43.54
2022-10-20T21:13:10.422Z,43.43
2022-10-20T21:15:41.159Z,43.57
2022-10-20T21:18:11.901Z,43.68
2022-10-20T21:20:42.582Z,43.81
2022-10-20T21:23:13.270Z,43.70
2022-10-20T21:25:50.152Z,43.82
2022-10-20T21:28:20.771Z,43.71
2022-10-20T21:30:51.439Z,43.75
2022-10-20T21:33:22.156Z,43.66
2022-10-20T21:35:52.880Z,43.56
2022-10-20T21:38:28.540Z,43.50
2022-10-20T21:41:05.866Z,43.56
2022-10-20T21:43:38.376Z,43.46
2022-10-20T21:46:17.336Z,43.57
2022-10-20T21:48:49.930Z,43.55
2022-10-20T21:51:23.020Z,43.73
2022-10-20T21:53:57.194Z,43.62
2022-10-20T21:56:28.668Z,43.63
2022-10-20T21:58:59.315Z,43.69
2022-10-20T22:01:30.007Z,43.67
2022-10-20T22:04:01.309Z,43.52
2022-10-20T22:06:31.938Z,43.58
2022-10-20T22:09:02.845Z,43.55
2022-10-20T22:11:35.555Z,43.48
2022-10-20T22:14:07.252Z,43.59
2022-10-20T22:16:41.792Z,43.69
2022-10-20T22:19:16.053Z,43.73
2022-10-20T22:21:48.925Z,43.52
2022-10-20T22:24:20.185Z,43.69
2022-10-20T22:26:51.838Z,43.74
2022-10-20T22:29:24.239Z,43.72
2022-10-20T22:31:54.848Z,43.70
2022-10-20T22:34:25.510Z,43.71
2022-10-20T22:36:56.127Z,43.67
2022-10-20T22:39:26.760Z,43.84
2022-10-20T22:41:57.397Z,43.67
2022-10-20T22:44:28.417Z,43.55
2022-10-20T22:46:59.197Z,43.67
2022-10-20T22:49:29.935Z,43.72
2022-10-20T22:52:00.593Z,43.85
2022-10-20T22:54:31.208Z,43.92
2022-10-20T22:57:01.943Z,43.81
2022-10-20T22:59:32.739Z,43.83
2022-10-20T23:02:03.524Z,43.89
2022-10-20T23:04:34.135Z,43.87
2022-10-20T23:07:05.004Z,43.88
2022-10-20T23:09:36.106Z,43.98
2022-10-20T23:12:07.464Z,43.93
2022-10-20T23:14:38.237Z,43.82
2022-10-20T23:17:08.888Z,43.83
2022-10-20T23:19:39.510Z,43.80
2022-10-20T23:22:10.247Z,43.88
2022-10-20T23:24:40.882Z,43.91
2022-10-20T23:27:12.027Z,43.97
2022-10-20T23:29:42.620Z,43.90
2022-10-20T23:32:13.281Z,43.88
2022-10-20T23:34:44.038Z,43.94
2022-10-20T23:37:14.671Z,44.01
2022-10-20T23:39:45.308Z,43.97
2022-10-20T23:42:16.134Z,44.00
2022-10-20T23:44:47.057Z,44.03
2022-10-20T23:47:17.725Z,43.89
2022-10-20T23:49:48.669Z,43.98
2022-10-20T23:52:19.614Z,43.89
2022-10-20T23:54:50.287Z,43.90
2022-10-20T23:57:20.916Z,43.92
2022-10-20T23:59:51.536Z,43.76
